Time;durP1;ratioP1;P1;durP2;ratioP2;P2;SDS_P1;SDS_P2;PMS_P1;PMS_P2;Temp;Humidity;BMP_temperature;BMP_pressure;BME280_temperature;BME280_humidity;BME280_pressure;Samples;Min_cycle;Max_cycle;Signal;HPM_P1;HPM_P2
2023/05/19 00:01:18;;;;;;;3.20;2.20;;;12.30;99.90;;;;;;4953662;28;20188;-75
2023/05/19 00:03:56;;;;;;;4.45;2.15;;;12.30;99.90;;;;;;4953084;29;20267;-74
2023/05/19 00:06:30;;;;;;;4.60;2.55;;;12.30;99.90;;;;;;4951669;28;20184;-76
2023/05/19 00:09:01;;;;;;;3.35;2.15;;;12.30;99.90;;;;;;4952909;29;20263;-75
2023/05/19 00:11:28;;;;;;;3.83;2.13;;;12.20;99.90;;;;;;4965576;28;20231;-76
2023/05/19 00:13:56;;;;;;;4.40;2.38;;;12.20;99.90;;;;;;4948430;29;20233;-77
2023/05/19 00:16:23;;;;;;;5.03;2.25;;;12.20;99.90;;;;;;4952708;28;20376;-78
2023/05/19 00:18:50;;;;;;;4.07;2.17;;;12.20;99.90;;;;;;4954902;29;20184;-75
2023/05/19 00:21:16;;;;;;;4.03;2.42;;;12.10;99.90;;;;;;4953560;28;20300;-77
2023/05/19 00:23:42;;;;;;;3.90;2.25;;;12.10;99.90;;;;;;4955520;29;20268;-75
2023/05/19 00:26:09;;;;;;;3.63;2.30;;;12.10;99.90;;;;;;4946510;29;20210;-77
2023/05/19 00:28:40;;;;;;;3.20;2.35;;;12.10;99.90;;;;;;4952068;28;20213;-77
2023/05/19 00:31:06;;;;;;;3.00;2.20;;;12.10;99.90;;;;;;4955667;29;20220;-74
2023/05/19 00:33:34;;;;;;;3.67;2.50;;;12.00;99.90;;;;;;4953649;29;20215;-76
2023/05/19 00:36:02;;;;;;;2.78;2.10;;;12.00;99.90;;;;;;4957959;28;20215;-77
2023/05/19 00:38:32;;;;;;;3.70;2.13;;;11.90;99.90;;;;;;4955408;29;20195;-77
2023/05/19 00:40:58;;;;;;;4.07;2.45;;;11.90;99.90;;;;;;4958774;28;20204;-74
2023/05/19 00:43:26;;;;;;;4.38;2.28;;;11.90;99.90;;;;;;4953396;28;20184;-77
2023/05/19 00:45:52;;;;;;;3.85;2.28;;;11.80;99.90;;;;;;4953467;28;20248;-77
2023/05/19 00:48:21;;;;;;;3.45;2.03;;;11.70;99.90;;;;;;4948490;28;20303;-77
2023/05/19 00:50:51;;;;;;;3.53;2.10;;;11.80;99.90;;;;;;4957943;28;20221;-75
2023/05/19 00:53:21;;;;;;;3.33;2.03;;;11.70;99.90;;;;;;4967937;28;20196;-75
2023/05/19 00:55:47;;;;;;;4.47;2.45;;;11.70;99.90;;;;;;4957721;28;20185;-78
2023/05/19 00:58:16;;;;;;;2.65;2.05;;;11.60;99.90;;;;;;4954947;29;20265;-75
2023/05/19 01:00:44;;;;;;;4.45;2.25;;;11.60;99.90;;;;;;4955542;29;20196;-73
2023/05/19 01:03:10;;;;;;;3.67;1.88;;;11.60;99.90;;;;;;4951871;28;20189;-77
2023/05/19 01:05:44;;;;;;;3.03;1.75;;;11.60;99.90;;;;;;4948711;28;20244;-76
2023/05/19 01:08:10;;;;;;;3.20;1.98;;;11.60;99.90;;;;;;4976429;28;20204;-73
2023/05/19 01:10:38;;;;;;;4.10;2.25;;;11.50;99.90;;;;;;4957744;29;20180;-76
2023/05/19 01:13:05;;;;;;;2.20;1.73;;;11.50;99.90;;;;;;4959044;28;20192;-74
2023/05/19 01:15:56;;;;;;;3.83;1.80;;;11.50;99.90;;;;;;5349827;23;20201;-77
2023/05/19 01:18:48;;;;;;;3.50;1.95;;;11.40;99.90;;;;;;4943465;29;20251;-75
2023/05/19 01:21:37;;;;;;;3.33;2.05;;;11.40;99.90;;;;;;4941715;29;20207;-75
2023/05/19 01:24:35;;;;;;;4.18;1.90;;;11.30;99.90;;;;;;4952517;28;20264;-71
2023/05/19 01:27:15;;;;;;;3.20;1.90;;;11.30;99.90;;;;;;4924642;29;20185;-70
2023/05/19 01:29:58;;;;;;;2.35;1.70;;;11.20;99.90;;;;;;4953569;29;20196;-74
2023/05/19 01:32:25;;;;;;;2.40;1.75;;;11.20;99.90;;;;;;4950652;29;20208;-67
2023/05/19 01:34:52;;;;;;;3.30;1.80;;;11.10;99.90;;;;;;4933422;29;20280;-77
2023/05/19 01:37:20;;;;;;;2.67;1.63;;;11.10;99.90;;;;;;4947098;29;20247;-70
2023/05/19 01:39:49;;;;;;;2.08;1.42;;;11.10;99.90;;;;;;4940040;29;20192;-77
2023/05/19 01:42:16;;;;;;;4.90;1.60;;;11.00;99.90;;;;;;4942073;29;20208;-77
2023/05/19 01:44:47;;;;;;;3.38;2.10;;;11.00;99.90;;;;;;4946949;29;20205;-79
2023/05/19 01:47:13;;;;;;;3.22;1.70;;;10.90;99.90;;;;;;4947779;29;20244;-67
2023/05/19 01:49:41;;;;;;;2.35;1.90;;;10.90;99.90;;;;;;4952062;29;20181;-75
2023/05/19 01:52:09;;;;;;;2.80;1.98;;;10.90;99.90;;;;;;4938508;29;20184;-75
2023/05/19 01:54:39;;;;;;;2.83;1.73;;;10.80;99.90;;;;;;4956909;29;20180;-77
2023/05/19 01:57:24;;;;;;;3.40;1.70;;;10.80;99.90;;;;;;4938562;29;20173;-74
2023/05/19 02:00:11;;;;;;;2.27;1.53;;;10.80;99.90;;;;;;4952941;28;20172;-77
2023/05/19 02:02:53;;;;;;;2.43;1.87;;;10.70;99.90;;;;;;4951487;29;20252;-78
2023/05/19 02:05:44;;;;;;;3.20;1.70;;;10.70;99.90;;;;;;4933637;29;20185;-75
2023/05/19 02:08:23;;;;;;;2.37;1.70;;;10.70;99.90;;;;;;4947734;29;20233;-77
2023/05/19 02:11:01;;;;;;;3.30;2.00;;;10.60;99.90;;;;;;4950575;29;20177;-76
2023/05/19 02:13:32;;;;;;;3.93;1.50;;;10.60;99.90;;;;;;4940375;29;20219;-77
2023/05/19 02:16:05;;;;;;;3.67;1.67;;;10.60;99.90;;;;;;4938895;29;20233;-74
2023/05/19 02:18:32;;;;;;;2.93;2.00;;;10.50;99.90;;;;;;4941738;29;20193;-75
2023/05/19 02:20:58;;;;;;;2.70;1.67;;;10.50;99.90;;;;;;4946027;29;20181;-76
2023/05/19 02:23:24;;;;;;;2.47;1.63;;;10.50;99.90;;;;;;4941058;29;20299;-78
2023/05/19 02:25:52;;;;;;;2.97;1.80;;;10.50;99.90;;;;;;4941648;29;20267;-78
2023/05/19 02:28:18;;;;;;;2.63;1.83;;;10.50;99.90;;;;;;4941192;29;20208;-72
2023/05/19 02:30:45;;;;;;;3.07;1.70;;;10.50;99.90;;;;;;4939666;29;20228;-77
2023/05/19 02:33:11;;;;;;;2.40;1.70;;;10.50;99.90;;;;;;4949470;29;20223;-79
2023/05/19 02:35:36;;;;;;;3.00;1.97;;;10.50;99.90;;;;;;4956698;29;20220;-78
2023/05/19 02:38:04;;;;;;;2.50;1.90;;;10.40;99.90;;;;;;4936479;29;20213;-77
2023/05/19 02:40:30;;;;;;;2.97;1.77;;;10.40;99.90;;;;;;4930056;29;20209;-78
2023/05/19 02:42:55;;;;;;;1.97;1.60;;;10.30;99.90;;;;;;4948130;29;20191;-75
2023/05/19 02:45:23;;;;;;;3.40;1.90;;;10.40;99.90;;;;;;4940663;29;20414;-76
2023/05/19 02:47:49;;;;;;;4.03;1.60;;;10.30;99.90;;;;;;4942531;29;20212;-74
2023/05/19 02:50:17;;;;;;;2.80;1.80;;;10.30;99.90;;;;;;4937689;29;20327;-77
2023/05/19 02:52:42;;;;;;;2.43;1.60;;;10.30;99.90;;;;;;4943086;29;20180;-70
2023/05/19 02:55:15;;;;;;;2.63;1.70;;;10.30;99.90;;;;;;4940760;29;20246;-79
2023/05/19 02:57:43;;;;;;;3.40;2.00;;;10.30;99.90;;;;;;4940182;29;20196;-74
2023/05/19 03:00:09;;;;;;;2.47;1.70;;;10.20;99.90;;;;;;4949567;29;20193;-78
2023/05/19 03:02:35;;;;;;;3.33;1.77;;;10.20;99.90;;;;;;4937557;29;20187;-72
2023/05/19 03:05:03;;;;;;;2.47;1.80;;;10.20;99.90;;;;;;4940652;29;20191;-78
2023/05/19 03:07:32;;;;;;;3.90;1.70;;;10.10;99.90;;;;;;4937937;29;20277;-73
2023/05/19 03:09:58;;;;;;;2.73;1.60;;;10.20;99.90;;;;;;4950234;28;20215;-79
2023/05/19 03:12:28;;;;;;;3.20;1.80;;;10.10;99.90;;;;;;4942353;29;20169;-78
2023/05/19 03:14:58;;;;;;;2.67;1.80;;;10.10;99.90;;;;;;4940331;29;20174;-79
2023/05/19 03:17:24;;;;;;;2.80;1.67;;;10.10;99.90;;;;;;4941085;29;20251;-78
2023/05/19 03:19:50;;;;;;;2.10;1.60;;;10.10;99.90;;;;;;4937850;29;20200;-76
2023/05/19 03:22:17;;;;;;;1.53;1.40;;;10.10;99.90;;;;;;4955241;29;20200;-73
2023/05/19 03:24:43;;;;;;;2.93;1.70;;;10.00;99.90;;;;;;4944913;29;20188;-77
2023/05/19 03:27:10;;;;;;;3.73;2.00;;;10.00;99.90;;;;;;4933010;29;20395;-78
2023/05/19 03:29:38;;;;;;;5.37;1.90;;;10.00;99.90;;;;;;4940183;29;20339;-78
2023/05/19 03:32:04;;;;;;;16.30;10.70;;;9.90;99.90;;;;;;4940054;29;20193;-79
2023/05/19 03:34:32;;;;;;;9.73;6.53;;;9.90;99.90;;;;;;4930176;29;20181;-75
2023/05/19 03:36:58;;;;;;;8.50;5.67;;;9.80;99.90;;;;;;4938622;29;20255;-74
2023/05/19 03:39:23;;;;;;;8.00;4.83;;;9.80;99.90;;;;;;4947720;29;20234;-78
2023/05/19 03:41:51;;;;;;;6.17;4.17;;;9.70;99.90;;;;;;4946365;29;20247;-78
2023/05/19 03:44:17;;;;;;;7.03;5.13;;;9.70;99.90;;;;;;4939405;29;20216;-71
2023/05/19 03:46:42;;;;;;;5.97;3.77;;;9.70;99.90;;;;;;4940501;29;20180;-78
2023/05/19 03:49:10;;;;;;;15.13;10.00;;;9.70;99.90;;;;;;4939436;29;20219;-74
2023/05/19 03:51:36;;;;;;;9.03;5.73;;;9.70;99.90;;;;;;4941476;29;20181;-79
2023/05/19 03:54:02;;;;;;;7.30;5.07;;;9.60;99.90;;;;;;4938761;28;20222;-73
2023/05/19 03:56:28;;;;;;;5.73;3.87;;;9.70;99.90;;;;;;4938733;29;20178;-74
2023/05/19 03:58:56;;;;;;;6.77;3.43;;;9.70;99.90;;;;;;4937706;29;20449;-78
2023/05/19 04:01:22;;;;;;;4.00;2.87;;;9.70;99.90;;;;;;4933863;29;20185;-69
2023/05/19 04:03:50;;;;;;;12.67;7.67;;;9.60;99.90;;;;;;4932700;29;20189;-78
2023/05/19 04:06:16;;;;;;;8.53;5.70;;;9.60;99.90;;;;;;4949893;29;20435;-78
2023/05/19 04:08:43;;;;;;;6.17;3.70;;;9.60;99.90;;;;;;4939824;29;20209;-78
2023/05/19 04:11:13;;;;;;;5.93;3.10;;;9.60;99.90;;;;;;4939735;29;20185;-78
2023/05/19 04:13:39;;;;;;;4.43;2.77;;;9.50;99.90;;;;;;4939243;29;20185;-79
2023/05/19 04:16:05;;;;;;;6.20;2.67;;;9.50;99.90;;;;;;4950268;29;20200;-76
2023/05/19 04:18:31;;;;;;;4.57;2.50;;;9.50;99.90;;;;;;4953892;29;20208;-78
2023/05/19 04:20:58;;;;;;;3.67;2.40;;;9.50;99.90;;;;;;4930094;29;20204;-78
2023/05/19 04:23:26;;;;;;;5.77;2.37;;;9.50;99.90;;;;;;4953480;29;20265;-78
2023/05/19 04:25:53;;;;;;;4.47;2.60;;;9.50;99.90;;;;;;4938446;29;20199;-78
2023/05/19 04:28:18;;;;;;;6.23;3.70;;;9.50;99.90;;;;;;4947393;29;20223;-79
2023/05/19 04:30:46;;;;;;;4.40;2.97;;;9.60;99.90;;;;;;4936529;29;20196;-77
2023/05/19 04:33:12;;;;;;;4.93;3.33;;;9.60;99.90;;;;;;4945942;28;20184;-77
2023/05/19 04:35:38;;;;;;;5.67;3.73;;;9.70;99.90;;;;;;4953817;29;20263;-79
2023/05/19 04:38:04;;;;;;;5.73;3.00;;;9.60;99.90;;;;;;4940863;29;20181;-77
2023/05/19 04:40:30;;;;;;;4.70;2.80;;;9.70;99.90;;;;;;4937023;29;20185;-78
2023/05/19 04:42:56;;;;;;;5.97;2.80;;;9.70;99.90;;;;;;4938987;29;20311;-77
2023/05/19 04:45:24;;;;;;;5.40;2.57;;;9.70;99.90;;;;;;4938168;28;20185;-78
2023/05/19 04:47:56;;;;;;;5.17;2.83;;;9.80;99.90;;;;;;4949451;28;20205;-74
2023/05/19 04:50:31;;;;;;;3.60;2.67;;;9.80;99.90;;;;;;4946227;28;20188;-78
2023/05/19 04:52:58;;;;;;;4.03;2.40;;;9.90;99.90;;;;;;4938765;29;20180;-74
2023/05/19 04:55:23;;;;;;;4.47;2.40;;;9.90;99.90;;;;;;4939198;29;20196;-78
2023/05/19 04:57:49;;;;;;;2.93;2.20;;;10.00;99.90;;;;;;4938257;29;20192;-79
2023/05/19 05:00:17;;;;;;;3.97;2.10;;;10.00;99.90;;;;;;4935627;28;20347;-79
2023/05/19 05:02:43;;;;;;;3.40;2.30;;;10.00;99.90;;;;;;4949183;29;20188;-77
2023/05/19 05:05:11;;;;;;;2.73;2.30;;;10.10;99.90;;;;;;4939625;29;20180;-77
2023/05/19 05:07:36;;;;;;;3.37;2.03;;;10.10;99.90;;;;;;4938695;29;20204;-78
2023/05/19 05:10:04;;;;;;;3.97;2.03;;;10.20;99.90;;;;;;4936036;29;20184;-75
2023/05/19 05:12:33;;;;;;;5.22;1.73;;;10.20;99.90;;;;;;4923832;29;20208;-72
2023/05/19 05:15:05;;;;;;;3.27;2.30;;;10.30;99.90;;;;;;4924961;29;20428;-78
2023/05/19 05:17:32;;;;;;;2.53;1.80;;;10.30;99.90;;;;;;4941569;29;20212;-78
2023/05/19 05:20:01;;;;;;;3.17;2.00;;;10.30;99.90;;;;;;4935996;29;20185;-77
2023/05/19 05:22:29;;;;;;;2.87;1.80;;;10.40;99.90;;;;;;4933562;29;20209;-79
2023/05/19 05:24:55;;;;;;;2.65;1.60;;;10.40;99.90;;;;;;4939245;29;20208;-76
2023/05/19 05:27:20;;;;;;;2.90;1.88;;;10.50;99.90;;;;;;4938871;29;22085;-76
2023/05/19 05:29:48;;;;;;;2.20;1.73;;;10.60;99.90;;;;;;4944186;29;20191;-78
2023/05/19 05:32:15;;;;;;;2.55;1.60;;;10.60;99.90;;;;;;4951931;28;20287;-74
2023/05/19 05:34:44;;;;;;;2.70;1.38;;;10.70;99.90;;;;;;4941825;29;20176;-79
2023/05/19 05:37:10;;;;;;;2.43;1.57;;;10.70;99.90;;;;;;4942575;29;20192;-78
2023/05/19 05:39:35;;;;;;;2.95;1.50;;;10.80;99.90;;;;;;4942249;29;20213;-78
2023/05/19 05:42:03;;;;;;;2.10;1.30;;;10.80;99.90;;;;;;4941718;29;20188;-75
2023/05/19 05:44:29;;;;;;;1.90;1.60;;;10.80;99.90;;;;;;4951977;28;20185;-76
2023/05/19 05:46:57;;;;;;;2.35;1.40;;;10.90;99.90;;;;;;4941108;29;20461;-77
2023/05/19 05:49:25;;;;;;;3.22;1.40;;;11.00;99.90;;;;;;4941635;29;20469;-78
2023/05/19 05:51:54;;;;;;;4.18;1.65;;;11.00;99.90;;;;;;4940832;28;20167;-74
2023/05/19 05:54:21;;;;;;;2.83;1.50;;;11.10;99.90;;;;;;4942091;29;20177;-73
2023/05/19 05:56:51;;;;;;;2.42;1.48;;;11.10;99.90;;;;;;4956789;29;20296;-78
2023/05/19 05:59:19;;;;;;;2.78;1.60;;;11.20;99.90;;;;;;4938925;29;20209;-77
2023/05/19 06:01:50;;;;;;;4.38;1.83;;;11.20;99.90;;;;;;4938764;29;20215;-74
2023/05/19 06:04:19;;;;;;;3.55;1.40;;;11.30;99.90;;;;;;4941023;29;20199;-74
2023/05/19 06:06:44;;;;;;;3.25;1.42;;;11.30;99.90;;;;;;4942523;29;20187;-78
2023/05/19 06:09:12;;;;;;;3.72;1.75;;;11.40;99.90;;;;;;4940941;29;20200;-77
2023/05/19 06:11:38;;;;;;;3.60;1.38;;;11.40;99.90;;;;;;4941350;29;20204;-79
2023/05/19 06:14:06;;;;;;;2.33;1.20;;;11.50;99.90;;;;;;4941051;29;20188;-76
2023/05/19 06:16:32;;;;;;;2.65;1.42;;;11.50;99.90;;;;;;4941422;29;20189;-72
2023/05/19 06:18:59;;;;;;;3.22;1.50;;;11.60;99.90;;;;;;4941825;29;20322;-78
2023/05/19 06:21:25;;;;;;;3.03;1.50;;;11.70;99.90;;;;;;4940417;29;20177;-73
2023/05/19 06:23:53;;;;;;;2.30;1.42;;;11.70;99.90;;;;;;4946056;28;20187;-77
2023/05/19 06:26:21;;;;;;;2.22;1.52;;;11.80;99.90;;;;;;4942220;29;20184;-78
2023/05/19 06:28:49;;;;;;;3.28;1.42;;;11.80;99.90;;;;;;4937062;29;20200;-67
2023/05/19 06:31:15;;;;;;;2.45;1.27;;;12.00;99.90;;;;;;4931145;29;20209;-77
2023/05/19 06:33:40;;;;;;;1.58;1.08;;;12.00;99.90;;;;;;4941715;29;20191;-78
2023/05/19 06:36:08;;;;;;;5.22;1.90;;;12.00;99.90;;;;;;4958301;29;20276;-78
2023/05/19 06:38:36;;;;;;;2.47;1.55;;;12.10;99.90;;;;;;4948990;29;20200;-76
2023/05/19 06:41:07;;;;;;;2.95;1.58;;;12.20;99.90;;;;;;4941261;29;20184;-79
2023/05/19 06:43:32;;;;;;;2.70;1.50;;;12.30;99.90;;;;;;4926474;29;20243;-77
2023/05/19 06:46:00;;;;;;;2.42;1.48;;;12.30;99.90;;;;;;4942660;29;20205;-78
2023/05/19 06:48:26;;;;;;;2.95;1.40;;;12.30;99.90;;;;;;4939577;29;20201;-73
2023/05/19 06:50:53;;;;;;;1.80;1.40;;;12.50;99.90;;;;;;4937638;29;20177;-71
2023/05/19 06:53:20;;;;;;;3.10;1.23;;;12.50;99.90;;;;;;4937125;29;20191;-72
2023/05/19 06:55:48;;;;;;;1.98;1.30;;;12.50;99.90;;;;;;4940837;29;20173;-72
2023/05/19 06:58:17;;;;;;;3.50;1.70;;;12.60;99.90;;;;;;4937450;29;20177;-72
2023/05/19 07:00:42;;;;;;;2.28;1.50;;;12.70;99.90;;;;;;4950897;28;20268;-72
2023/05/19 07:03:08;;;;;;;4.40;1.50;;;12.70;99.90;;;;;;4933887;29;20280;-71
2023/05/19 07:05:36;;;;;;;2.25;1.42;;;12.80;99.90;;;;;;4940889;29;20180;-73
2023/05/19 07:08:05;;;;;;;1.90;1.27;;;12.80;99.90;;;;;;4936874;29;20481;-72
2023/05/19 07:10:33;;;;;;;4.55;1.70;;;13.00;99.90;;;;;;4948392;29;20204;-71
2023/05/19 07:12:59;;;;;;;3.95;1.70;;;13.00;99.90;;;;;;4939699;29;20263;-72
2023/05/19 07:15:29;;;;;;;5.93;1.67;;;13.10;99.90;;;;;;4941401;28;20283;-73
2023/05/19 07:17:57;;;;;;;3.20;1.80;;;13.10;99.90;;;;;;4941545;29;20216;-72
2023/05/19 07:20:22;;;;;;;2.92;1.52;;;13.10;99.90;;;;;;4948774;29;20196;-72
2023/05/19 07:22:50;;;;;;;3.63;1.40;;;13.20;99.90;;;;;;4940800;29;20180;-70
2023/05/19 07:25:16;;;;;;;3.72;1.67;;;13.30;99.90;;;;;;4941074;29;20291;-68
2023/05/19 07:27:41;;;;;;;3.25;1.77;;;13.40;99.90;;;;;;4939308;29;20304;-66
2023/05/19 07:30:07;;;;;;;4.25;1.50;;;13.40;99.90;;;;;;4945129;29;20199;-67
2023/05/19 07:32:36;;;;;;;1.50;1.20;;;13.50;99.90;;;;;;4949965;29;20212;-66
2023/05/19 07:35:01;;;;;;;2.53;1.60;;;13.50;99.90;;;;;;4957089;28;20173;-66
2023/05/19 07:37:27;;;;;;;2.95;1.52;;;13.60;99.90;;;;;;4939712;29;20356;-64
2023/05/19 07:39:55;;;;;;;4.38;1.40;;;13.70;99.90;;;;;;4940206;29;20203;-67
2023/05/19 07:42:23;;;;;;;2.65;1.38;;;13.70;99.90;;;;;;4938000;29;20177;-66
2023/05/19 07:44:48;;;;;;;2.75;1.35;;;13.80;99.90;;;;;;4949107;29;20259;-66
2023/05/19 07:47:14;;;;;;;2.22;1.10;;;13.80;99.90;;;;;;4940467;29;20218;-65
2023/05/19 07:49:42;;;;;;;3.95;1.75;;;13.90;99.90;;;;;;4955853;29;20265;-67
2023/05/19 07:52:10;;;;;;;1.98;1.42;;;14.00;99.90;;;;;;4940900;28;20200;-67
2023/05/19 07:54:40;;;;;;;3.78;1.50;;;14.00;99.90;;;;;;4950760;29;20177;-62
2023/05/19 07:57:08;;;;;;;2.05;1.42;;;14.10;99.90;;;;;;4937873;29;20236;-65
2023/05/19 07:59:34;;;;;;;3.05;1.77;;;14.20;99.90;;;;;;4949371;28;20181;-66
2023/05/19 08:02:02;;;;;;;2.22;1.35;;;14.20;99.90;;;;;;4937575;29;20312;-65
2023/05/19 08:04:27;;;;;;;3.00;1.30;;;14.30;99.90;;;;;;4949359;29;20177;-68
2023/05/19 08:06:54;;;;;;;4.80;1.67;;;14.40;99.90;;;;;;4940343;29;20203;-65
2023/05/19 08:09:21;;;;;;;4.55;1.60;;;14.50;99.90;;;;;;4940714;29;20207;-65
2023/05/19 08:11:49;;;;;;;1.98;1.15;;;14.50;99.90;;;;;;4955708;29;20219;-65
2023/05/19 08:14:15;;;;;;;3.35;1.40;;;14.60;99.90;;;;;;4939347;29;20197;-65
2023/05/19 08:16:44;;;;;;;2.90;1.17;;;14.70;99.90;;;;;;4940854;29;20196;-65
2023/05/19 08:19:12;;;;;;;3.10;1.30;;;14.70;99.90;;;;;;4939723;29;20220;-65
2023/05/19 08:21:38;;;;;;;2.97;1.40;;;14.80;99.90;;;;;;4943396;29;20203;-62
2023/05/19 08:24:09;;;;;;;2.30;1.20;;;14.90;99.90;;;;;;4941233;29;20177;-65
2023/05/19 08:26:36;;;;;;;2.75;1.40;;;14.90;99.90;;;;;;4936224;29;20220;-65
2023/05/19 08:29:02;;;;;;;5.57;1.48;;;15.00;99.90;;;;;;4928935;29;20288;-65
2023/05/19 08:31:28;;;;;;;2.22;1.27;;;15.10;99.90;;;;;;4938389;29;20280;-65
2023/05/19 08:33:56;;;;;;;1.77;1.30;;;15.20;99.90;;;;;;4940124;29;20184;-65
2023/05/19 08:36:24;;;;;;;3.67;1.20;;;15.30;99.90;;;;;;4962194;29;20258;-66
2023/05/19 08:38:52;;;;;;;4.80;1.50;;;15.40;99.90;;;;;;4941852;29;20189;-65
2023/05/19 08:41:23;;;;;;;1.23;1.08;;;15.40;99.90;;;;;;4938573;29;20188;-65
2023/05/19 08:43:49;;;;;;;3.08;1.30;;;15.50;99.90;;;;;;4945293;28;20226;-65
2023/05/19 08:46:17;;;;;;;3.42;1.45;;;15.60;99.90;;;;;;4955710;29;20216;-65
2023/05/19 08:48:44;;;;;;;3.97;1.60;;;15.70;99.90;;;;;;4939395;29;20215;-65
2023/05/19 08:51:30;;;;;;;3.30;1.42;;;15.70;99.90;;;;;;4938063;29;20191;-65
2023/05/19 08:54:03;;;;;;;3.03;1.20;;;15.80;99.90;;;;;;4937306;29;20162;-65
2023/05/19 08:56:32;;;;;;;2.45;1.60;;;15.90;99.90;;;;;;4924689;29;20181;-64
2023/05/19 08:58:59;;;;;;;1.30;0.90;;;16.00;99.90;;;;;;4922317;29;20260;-65
2023/05/19 09:01:27;;;;;;;2.47;1.30;;;16.20;99.90;;;;;;4940036;29;20180;-65
2023/05/19 09:03:56;;;;;;;2.13;1.38;;;16.20;99.90;;;;;;4936413;29;20185;-66
2023/05/19 09:06:24;;;;;;;3.63;1.40;;;16.30;99.90;;;;;;4944872;29;20204;-66
2023/05/19 09:08:54;;;;;;;2.53;1.33;;;16.40;99.90;;;;;;4967876;28;20204;-65
2023/05/19 09:11:21;;;;;;;3.42;1.75;;;16.50;99.90;;;;;;4932933;29;20182;-65
2023/05/19 09:13:47;;;;;;;3.80;1.70;;;16.50;99.90;;;;;;4941115;29;20292;-66
2023/05/19 09:16:13;;;;;;;2.90;1.52;;;16.60;99.90;;;;;;4943598;29;20207;-65
2023/05/19 09:18:39;;;;;;;3.63;1.30;;;16.70;99.90;;;;;;4941587;29;20180;-65
2023/05/19 09:21:06;;;;;;;2.47;1.23;;;16.80;99.90;;;;;;4942275;29;20204;-65
2023/05/19 09:23:35;;;;;;;3.58;1.50;;;17.00;99.90;;;;;;4943648;29;20181;-66
2023/05/19 09:26:06;;;;;;;2.65;1.20;;;17.00;99.90;;;;;;4939189;29;20205;-65
2023/05/19 09:28:37;;;;;;;2.70;1.30;;;17.10;99.90;;;;;;4924221;29;20221;-65
2023/05/19 09:31:05;;;;;;;3.72;1.50;;;17.20;99.90;;;;;;4940288;29;20185;-65
2023/05/19 09:33:33;;;;;;;3.60;1.40;;;17.30;99.90;;;;;;4957728;29;20177;-62
2023/05/19 09:36:04;;;;;;;3.65;1.42;;;17.40;99.90;;;;;;4959126;28;20477;-66
2023/05/19 09:38:35;;;;;;;3.20;1.17;;;17.50;99.90;;;;;;4960927;28;20275;-64
2023/05/19 09:41:02;;;;;;;2.78;1.40;;;17.50;99.90;;;;;;4942907;29;20176;-66
2023/05/19 09:43:29;;;;;;;4.68;1.52;;;17.60;99.90;;;;;;4943125;29;20348;-66
2023/05/19 09:46:05;;;;;;;3.85;1.98;;;17.70;99.90;;;;;;4942256;29;20192;-65
2023/05/19 09:48:35;;;;;;;4.78;1.52;;;17.70;99.90;;;;;;4948831;28;20243;-66
2023/05/19 09:51:01;;;;;;;2.80;1.40;;;17.80;99.90;;;;;;4950991;29;20208;-65
2023/05/19 09:53:35;;;;;;;3.08;1.45;;;18.00;99.90;;;;;;4939702;29;20177;-65
2023/05/19 09:56:02;;;;;;;2.83;1.40;;;18.10;99.90;;;;;;4932585;29;20177;-64
2023/05/19 09:58:36;;;;;;;4.00;1.50;;;18.20;99.90;;;;;;4942606;29;20200;-65
2023/05/19 10:01:06;;;;;;;1.90;1.17;;;18.30;99.90;;;;;;4943879;29;20187;-66
2023/05/19 10:03:32;;;;;;;3.45;1.20;;;18.30;99.90;;;;;;4957041;29;20508;-66
2023/05/19 10:06:11;;;;;;;2.03;1.17;;;18.40;99.90;;;;;;4943059;29;20250;-66
2023/05/19 10:08:38;;;;;;;2.42;1.20;;;18.50;99.90;;;;;;4938680;29;20215;-66
2023/05/19 10:11:09;;;;;;;3.28;1.40;;;18.50;99.90;;;;;;4935507;29;20219;-66
2023/05/19 10:13:37;;;;;;;2.95;1.40;;;18.60;99.90;;;;;;4942059;29;20205;-67
2023/05/19 10:16:04;;;;;;;2.05;1.23;;;18.70;99.90;;;;;;4941958;29;20193;-66
2023/05/19 10:18:32;;;;;;;4.45;1.30;;;18.90;99.90;;;;;;4942764;29;20188;-66
2023/05/19 10:21:01;;;;;;;2.63;1.38;;;19.00;99.90;;;;;;4937505;29;20173;-67
2023/05/19 10:23:27;;;;;;;3.72;1.20;;;19.10;99.90;;;;;;4942890;29;20181;-66
2023/05/19 10:25:55;;;;;;;2.67;1.15;;;19.20;99.90;;;;;;4939689;29;20177;-66
2023/05/19 10:28:24;;;;;;;2.22;1.20;;;19.40;99.90;;;;;;4941383;29;20200;-66
2023/05/19 10:30:55;;;;;;;4.93;1.50;;;19.60;99.90;;;;;;4942320;29;20175;-66
2023/05/19 10:33:41;;;;;;;3.05;1.20;;;19.80;99.90;;;;;;4938638;29;20244;-65
2023/05/19 10:36:37;;;;;;;1.75;1.10;;;20.00;99.90;;;;;;4954590;28;20255;-66
2023/05/19 10:39:16;;;;;;;3.60;1.27;;;20.20;99.90;;;;;;4928440;29;20181;-65
2023/05/19 10:42:00;;;;;;;2.40;1.23;;;20.30;99.90;;;;;;4947209;29;20200;-65
2023/05/19 10:44:47;;;;;;;1.90;1.10;;;20.50;99.90;;;;;;4942440;29;20193;-66
2023/05/19 10:47:28;;;;;;;2.72;1.25;;;20.70;99.90;;;;;;4942448;29;20183;-66
2023/05/19 10:49:54;;;;;;;4.13;1.60;;;21.00;99.90;;;;;;4941757;29;20259;-67
2023/05/19 10:52:28;;;;;;;1.83;1.13;;;21.30;99.90;;;;;;4942105;29;20243;-66
2023/05/19 10:54:54;;;;;;;1.73;1.10;;;21.50;99.90;;;;;;4942224;29;20168;-67
2023/05/19 10:57:31;;;;;;;3.63;1.10;;;21.70;99.90;;;;;;4941552;29;20263;-66
2023/05/19 11:00:09;;;;;;;2.83;1.20;;;22.00;99.90;;;;;;4938160;29;20231;-66
2023/05/19 11:02:44;;;;;;;4.47;1.60;;;22.20;99.90;;;;;;4941045;29;20173;-64
2023/05/19 11:05:13;;;;;;;2.03;1.08;;;22.40;99.90;;;;;;4941899;29;20183;-66
2023/05/19 11:07:43;;;;;;;4.05;1.80;;;22.60;99.90;;;;;;4924924;29;20284;-66
2023/05/19 11:10:24;;;;;;;2.13;1.38;;;22.70;99.90;;;;;;4944858;29;20169;-66
2023/05/19 11:12:51;;;;;;;1.50;0.93;;;22.80;99.90;;;;;;4940590;29;20196;-64
2023/05/19 11:15:17;;;;;;;3.53;1.20;;;23.00;99.90;;;;;;4941236;29;20179;-66
2023/05/19 11:17:48;;;;;;;3.10;1.40;;;23.20;99.90;;;;;;4940814;29;20196;-67
2023/05/19 11:20:24;;;;;;;2.78;1.10;;;23.40;99.90;;;;;;4941782;29;20189;-67
2023/05/19 11:23:02;;;;;;;2.15;1.20;;;23.60;99.90;;;;;;4940729;29;20188;-65
2023/05/19 11:25:45;;;;;;;1.85;1.00;;;23.80;99.90;;;;;;4940436;29;20204;-67
2023/05/19 11:28:14;;;;;;;1.55;1.05;;;23.80;99.90;;;;;;4941107;29;20201;-67
2023/05/19 11:30:49;;;;;;;1.98;1.38;;;23.60;99.90;;;;;;4940178;29;20246;-67
2023/05/19 11:33:18;;;;;;;4.38;1.17;;;23.50;99.90;;;;;;4940132;29;20196;-67
2023/05/19 11:35:46;;;;;;;1.92;1.20;;;23.40;99.90;;;;;;4941210;29;20188;-67
2023/05/19 11:38:13;;;;;;;2.53;1.30;;;23.50;99.90;;;;;;4935384;29;20184;-66
2023/05/19 11:40:42;;;;;;;2.50;1.20;;;23.50;99.90;;;;;;4940016;29;20209;-66
2023/05/19 11:43:10;;;;;;;2.20;1.40;;;23.70;99.90;;;;;;4940767;29;20219;-67
2023/05/19 11:45:36;;;;;;;2.20;1.20;;;23.80;99.90;;;;;;4939972;29;20184;-67
2023/05/19 11:48:01;;;;;;;2.47;1.20;;;23.90;99.90;;;;;;4946024;28;20234;-66
2023/05/19 11:50:34;;;;;;;2.53;1.20;;;24.00;99.90;;;;;;4940970;29;20185;-67
2023/05/19 11:53:04;;;;;;;1.95;1.10;;;23.90;99.10;;;;;;4938402;29;20188;-66
2023/05/19 11:55:30;;;;;;;4.80;1.48;;;23.90;99.40;;;;;;4940620;29;20208;-66
2023/05/19 11:58:01;;;;;;;1.98;1.30;;;23.80;99.10;;;;;;4956225;29;20190;-66
2023/05/19 12:00:28;;;;;;;2.03;1.20;;;23.80;97.40;;;;;;4940770;29;20202;-67
2023/05/19 12:02:54;;;;;;;2.58;1.35;;;23.80;98.50;;;;;;4940254;29;20236;-67
2023/05/19 12:05:24;;;;;;;3.25;1.63;;;23.90;98.40;;;;;;4938407;29;20185;-67
2023/05/19 12:07:52;;;;;;;3.45;1.40;;;23.90;97.20;;;;;;4940584;29;20394;-66
2023/05/19 12:10:29;;;;;;;1.58;0.90;;;24.10;98.30;;;;;;4939671;29;20200;-65
2023/05/19 12:12:58;;;;;;;2.30;1.13;;;24.10;94.90;;;;;;4940669;29;20239;-67
2023/05/19 12:15:24;;;;;;;3.70;1.20;;;24.20;97.70;;;;;;4928634;29;20186;-67
2023/05/19 12:17:56;;;;;;;3.10;1.35;;;24.20;97.00;;;;;;4922627;29;20280;-66
2023/05/19 12:20:30;;;;;;;1.83;1.02;;;24.30;95.80;;;;;;4940426;29;20181;-66
2023/05/19 12:23:00;;;;;;;2.35;1.00;;;24.40;96.30;;;;;;4940203;29;20183;-64
2023/05/19 12:25:29;;;;;;;1.83;1.10;;;24.70;96.90;;;;;;4940610;29;20181;-66
2023/05/19 12:27:59;;;;;;;3.22;1.30;;;24.80;97.80;;;;;;4936687;29;20208;-66
2023/05/19 12:30:27;;;;;;;3.40;1.33;;;25.00;93.10;;;;;;4923897;29;20198;-66
2023/05/19 12:32:56;;;;;;;3.17;1.30;;;25.20;95.00;;;;;;4949558;29;20230;-67
2023/05/19 12:35:25;;;;;;;2.20;1.30;;;25.30;95.40;;;;;;4939976;29;20181;-66
2023/05/19 12:37:51;;;;;;;1.48;1.17;;;25.40;93.30;;;;;;4939293;29;20173;-67
2023/05/19 12:40:19;;;;;;;3.38;1.23;;;25.60;94.80;;;;;;4940313;29;20184;-66
2023/05/19 12:42:50;;;;;;;2.05;1.15;;;25.70;94.30;;;;;;4941110;29;20206;-67
2023/05/19 12:45:20;;;;;;;3.15;1.45;;;25.80;93.20;;;;;;4940666;29;20183;-67
2023/05/19 12:47:48;;;;;;;2.38;1.25;;;25.90;92.20;;;;;;4941221;29;20205;-67
2023/05/19 12:50:13;;;;;;;3.28;1.40;;;26.00;92.60;;;;;;4926625;29;20181;-68
2023/05/19 12:52:46;;;;;;;1.80;1.30;;;26.10;92.50;;;;;;4930791;29;20184;-68
2023/05/19 12:55:15;;;;;;;1.85;1.10;;;26.20;91.50;;;;;;4943529;29;20191;-67
2023/05/19 12:57:43;;;;;;;3.38;1.20;;;26.30;92.00;;;;;;4944167;29;20207;-67